createdAt,value
2023-05-13T00:00:23.876Z,101806.50
2023-05-13T00:03:26.776Z,101802.06
2023-05-13T00:06:29.586Z,101805.28
2023-05-13T00:09:33.655Z,101805.34
2023-05-13T00:12:37.095Z,101800.34
2023-05-13T00:15:40.325Z,101799.53
2023-05-13T00:18:42.980Z,101799.78
2023-05-13T00:21:45.635Z,101798.97
2023-05-13T00:24:49.580Z,101798.31
2023-05-13T00:27:52.223Z,101799.19
2023-05-13T00:30:55.276Z,101806.03
2023-05-13T00:33:57.850Z,101801.41
2023-05-13T00:37:00.998Z,101801.72
2023-05-13T00:40:05.515Z,101797.25
2023-05-13T00:43:08.121Z,101803.94
2023-05-13T00:46:10.855Z,101787.34
2023-05-13T00:49:13.548Z,101798.50
2023-05-13T00:52:16.166Z,101800.19
2023-05-13T00:55:20.195Z,101795.75
2023-05-13T00:58:22.823Z,101788.09
2023-05-13T01:01:34.121Z,101800.84
2023-05-13T01:04:45.385Z,101796.09
2023-05-13T01:07:57.691Z,101793.09
2023-05-13T01:11:05.147Z,101788.97
2023-05-13T01:14:12.497Z,101801.19
2023-05-13T01:17:19.364Z,101795.44
2023-05-13T01:20:24.507Z,101795.38
2023-05-13T01:23:28.553Z,101790.13
2023-05-13T01:26:31.301Z,101794.59
2023-05-13T01:29:34.253Z,101801.00
2023-05-13T01:32:38.488Z,101796.38
2023-05-13T01:35:41.306Z,101804.94
2023-05-13T01:38:45.983Z,101810.78
2023-05-13T01:41:48.610Z,101808.22
2023-05-13T01:44:52.580Z,101809.47
2023-05-13T01:47:55.173Z,101809.66
2023-05-13T01:50:57.790Z,101820.59
2023-05-13T01:54:01.738Z,101818.59
2023-05-13T01:57:04.649Z,101813.25
2023-05-13T02:00:08.666Z,101807.34
2023-05-13T02:03:11.336Z,101821.25
2023-05-13T02:06:14.013Z,101818.31
2023-05-13T02:09:17.942Z,101823.84
2023-05-13T02:12:20.615Z,101815.69
2023-05-13T02:15:23.256Z,101811.81
2023-05-13T02:18:25.917Z,101809.63
2023-05-13T02:21:28.523Z,101819.69
2023-05-13T02:24:32.566Z,101814.59
2023-05-13T02:27:35.162Z,101812.41
2023-05-13T02:30:37.929Z,101814.94
2023-05-13T02:33:40.521Z,101813.13
2023-05-13T02:36:43.118Z,101817.88
2023-05-13T02:39:47.049Z,101823.00
2023-05-13T02:42:49.844Z,101817.44
2023-05-13T02:45:52.528Z,101818.00
2023-05-13T02:48:55.117Z,101816.94
2023-05-13T02:51:57.737Z,101815.69
2023-05-13T02:55:01.817Z,101812.81
2023-05-13T02:58:04.491Z,101815.91
2023-05-13T03:01:07.217Z,101816.84
2023-05-13T03:04:09.878Z,101814.91
2023-05-13T03:07:12.453Z,101810.16
2023-05-13T03:10:16.460Z,101809.06
2023-05-13T03:13:19.117Z,101818.44
2023-05-13T03:16:21.729Z,101811.72
2023-05-13T03:19:25.021Z,101815.00
2023-05-13T03:22:27.796Z,101813.44
2023-05-13T03:25:31.730Z,101816.06
2023-05-13T03:28:34.365Z,101814.78
2023-05-13T03:31:37.060Z,101815.56
2023-05-13T03:34:39.713Z,101817.63
2023-05-13T03:37:42.295Z,101818.03
2023-05-13T03:40:46.943Z,101820.78
2023-05-13T03:43:49.529Z,101827.41
2023-05-13T03:46:52.222Z,101826.88
2023-05-13T03:49:54.878Z,101831.03
2023-05-13T03:52:57.875Z,101824.88
2023-05-13T03:56:01.824Z,101828.19
2023-05-13T03:59:04.422Z,101828.03
2023-05-13T04:02:07.315Z,101830.38
2023-05-13T04:05:10.897Z,101828.06
2023-05-13T04:08:13.782Z,101833.25
2023-05-13T04:11:17.755Z,101832.06
2023-05-13T04:14:20.875Z,101831.06
2023-05-13T04:17:23.476Z,101835.41
2023-05-13T04:20:26.434Z,101841.56
2023-05-13T04:23:29.005Z,101836.16
2023-05-13T04:26:33.095Z,101844.44
2023-05-13T04:29:35.638Z,101839.06
2023-05-13T04:32:39.150Z,101843.22
2023-05-13T04:35:41.771Z,101840.47
2023-05-13T04:38:44.367Z,101847.44
2023-05-13T04:41:48.442Z,101853.41
2023-05-13T04:44:51.115Z,101852.00
2023-05-13T04:47:54.892Z,101849.34
2023-05-13T04:50:58.769Z,101851.09
2023-05-13T04:54:01.916Z,101850.97
2023-05-13T04:57:06.559Z,101855.38
2023-05-13T05:00:10.695Z,101858.38
2023-05-13T05:03:13.322Z,101852.00
2023-05-13T05:06:15.959Z,101849.88
2023-05-13T05:09:18.886Z,101846.84
2023-05-13T05:12:22.849Z,101854.59
2023-05-13T05:15:25.517Z,101862.44
2023-05-13T05:18:28.214Z,101861.34
2023-05-13T05:21:30.856Z,101863.19
2023-05-13T05:24:33.482Z,101867.09
2023-05-13T05:27:37.435Z,101862.81
2023-05-13T05:30:40.379Z,101865.91
2023-05-13T05:33:43.134Z,101860.47
2023-05-13T05:36:45.766Z,101871.44
2023-05-13T05:39:48.349Z,101865.84
2023-05-13T05:42:52.297Z,101866.53
2023-05-13T05:45:54.953Z,101869.34
2023-05-13T05:48:57.562Z,101870.56
2023-05-13T05:52:00.188Z,101870.28
2023-05-13T05:55:03.381Z,101870.16
2023-05-13T05:58:07.391Z,101868.94
2023-05-13T06:01:10.270Z,101882.75
2023-05-13T06:04:13.050Z,101880.75
2023-05-13T06:07:15.797Z,101877.97
2023-05-13T06:10:18.452Z,101868.38
2023-05-13T06:13:22.486Z,101873.19
2023-05-13T06:16:25.403Z,101877.50
2023-05-13T06:19:28.031Z,101879.22
2023-05-13T06:22:30.726Z,101883.13
2023-05-13T06:25:33.405Z,101879.94
2023-05-13T06:28:37.314Z,101876.28
2023-05-13T06:31:39.936Z,101881.84
2023-05-13T06:34:45.606Z,101879.78
2023-05-13T06:37:48.178Z,101881.13
2023-05-13T06:40:50.746Z,101874.63
2023-05-13T06:43:54.666Z,101882.03
2023-05-13T06:46:57.259Z,101875.03
2023-05-13T06:49:59.864Z,101883.72
2023-05-13T06:53:03.592Z,101883.78
2023-05-13T06:56:06.722Z,101880.00
2023-05-13T06:59:10.768Z,101876.56
2023-05-13T07:02:13.366Z,101881.81
2023-05-13T07:05:15.982Z,101884.47
2023-05-13T07:08:18.831Z,101891.84
2023-05-13T07:11:22.378Z,101890.28
2023-05-13T07:14:26.326Z,101893.50
2023-05-13T07:17:29.207Z,101887.03
2023-05-13T07:20:31.849Z,101881.81
2023-05-13T07:23:35.730Z,101888.66
2023-05-13T07:26:38.745Z,101888.91
2023-05-13T07:29:42.690Z,101889.72
2023-05-13T07:32:45.343Z,101888.25
2023-05-13T07:35:47.968Z,101877.81
2023-05-13T07:38:50.978Z,101881.66
2023-05-13T07:41:53.588Z,101879.03
2023-05-13T07:44:57.542Z,101875.06
2023-05-13T07:48:00.227Z,101871.53
2023-05-13T07:51:02.949Z,101875.50
2023-05-13T07:54:05.604Z,101870.53
2023-05-13T07:57:08.287Z,101870.19
2023-05-13T08:00:13.242Z,101878.38
2023-05-13T08:03:16.055Z,101871.94
2023-05-13T08:06:18.740Z,101869.38
2023-05-13T08:09:21.335Z,101874.44
2023-05-13T08:12:23.954Z,101876.00
2023-05-13T08:15:28.979Z,101880.06
2023-05-13T08:18:31.578Z,101882.03
2023-05-13T08:21:34.213Z,101878.94
2023-05-13T08:24:36.764Z,101879.31
2023-05-13T08:27:39.414Z,101872.84
2023-05-13T08:30:44.295Z,101871.75
2023-05-13T08:33:48.499Z,101873.59
2023-05-13T08:36:51.092Z,101868.00
2023-05-13T08:39:55.901Z,101872.63
2023-05-13T08:43:00.535Z,101874.69
2023-05-13T08:46:05.235Z,101877.69
2023-05-13T08:49:09.385Z,101876.63
2023-05-13T08:52:12.075Z,101876.16
2023-05-13T08:55:15.605Z,101870.91
2023-05-13T08:58:18.207Z,101867.00
2023-05-13T09:01:23.974Z,101872.13
2023-05-13T09:04:26.957Z,101872.84
2023-05-13T09:07:31.468Z,101879.28
2023-05-13T09:10:34.055Z,101869.34
2023-05-13T09:13:37.350Z,101885.47
2023-05-13T09:16:41.331Z,101881.81
2023-05-13T09:19:44.051Z,101879.31
2023-05-13T09:22:48.113Z,101883.03
2023-05-13T09:25:50.771Z,101882.25
2023-05-13T09:29:17.773Z,101880.53
2023-05-13T09:32:21.729Z,101881.75
2023-05-13T09:35:24.317Z,101883.38
2023-05-13T09:38:29.005Z,101876.97
2023-05-13T09:41:32.378Z,101879.66
2023-05-13T09:44:35.067Z,101877.09
2023-05-13T09:47:39.182Z,101874.94
2023-05-13T09:50:48.643Z,101879.84
2023-05-13T09:53:51.220Z,101884.53
2023-05-13T09:56:59.504Z,101879.72
2023-05-13T10:00:05.155Z,101878.16
2023-05-13T10:03:09.542Z,101872.22
2023-05-13T10:06:12.282Z,101876.91
2023-05-13T10:09:17.493Z,101875.13
2023-05-13T10:12:22.121Z,101879.19
2023-05-13T10:15:25.914Z,101875.97
2023-05-13T10:18:30.279Z,101874.28
2023-05-13T10:21:33.540Z,101883.56
2023-05-13T10:24:38.686Z,101875.16
2023-05-13T10:27:43.244Z,101867.06
2023-05-13T10:30:46.606Z,101867.19
2023-05-13T10:33:53.257Z,101866.03
2023-05-13T10:37:10.850Z,101856.09
2023-05-13T10:40:30.135Z,101859.50
2023-05-13T10:43:33.111Z,101874.09
2023-05-13T10:46:39.251Z,101855.59
2023-05-13T10:49:51.850Z,101853.34
2023-05-13T10:52:58.211Z,101852.75
2023-05-13T10:56:01.038Z,101863.41
2023-05-13T10:59:05.461Z,101843.56
2023-05-13T11:02:22.002Z,101844.06
2023-05-13T11:05:26.168Z,101832.28
2023-05-13T11:08:38.880Z,101841.47
2023-05-13T11:11:41.851Z,101839.13
2023-05-13T11:14:44.981Z,101844.19
2023-05-13T11:17:47.686Z,101828.72
2023-05-13T11:20:55.070Z,101826.41
2023-05-13T11:23:59.188Z,101830.56
2023-05-13T11:27:14.588Z,101819.13
2023-05-13T11:30:24.186Z,101824.66
2023-05-13T11:34:02.008Z,101824.78
2023-05-13T11:37:11.482Z,101816.66
2023-05-13T11:40:22.731Z,101820.09
2023-05-13T11:43:25.662Z,101812.22
2023-05-13T11:46:28.335Z,101814.31
2023-05-13T11:49:39.705Z,101817.63
2023-05-13T11:52:43.721Z,101804.06
2023-05-13T11:55:46.582Z,101808.66
2023-05-13T11:58:49.370Z,101814.31
2023-05-13T12:02:02.086Z,101806.59
2023-05-13T12:05:06.119Z,101815.19
2023-05-13T12:08:11.854Z,101805.25
2023-05-13T12:11:14.956Z,101808.69
2023-05-13T12:14:18.240Z,101812.63
2023-05-13T12:17:22.285Z,101811.94
2023-05-13T12:20:25.715Z,101804.06
2023-05-13T12:23:39.794Z,101812.63
2023-05-13T12:26:42.796Z,101813.16
2023-05-13T12:29:45.394Z,101808.72
2023-05-13T12:32:48.029Z,101820.81
2023-05-13T12:35:52.424Z,101821.88
2023-05-13T12:39:00.234Z,101811.34
2023-05-13T12:42:03.290Z,101815.03
2023-05-13T12:45:07.207Z,101816.13
2023-05-13T12:48:10.137Z,101802.34
2023-05-13T12:51:12.767Z,101811.03
2023-05-13T12:54:16.703Z,101816.41
2023-05-13T12:57:20.509Z,101810.66
2023-05-13T13:00:23.335Z,101810.78
2023-05-13T13:03:26.098Z,101814.28
2023-05-13T13:06:29.938Z,101816.03
2023-05-13T13:09:33.900Z,101815.75
2023-05-13T13:12:36.484Z,101807.41
2023-05-13T13:15:39.336Z,101800.34
2023-05-13T13:18:42.566Z,101795.31
2023-05-13T13:21:45.189Z,101794.09
2023-05-13T13:24:49.150Z,101794.84
2023-05-13T13:27:51.784Z,101795.31
2023-05-13T13:30:54.515Z,101796.16
2023-05-13T13:33:58.897Z,101796.69
2023-05-13T13:37:01.540Z,101798.50
2023-05-13T13:40:06.499Z,101794.84
2023-05-13T13:43:09.456Z,101795.13
2023-05-13T13:46:12.076Z,101797.03
2023-05-13T13:49:23.232Z,101792.81
2023-05-13T13:52:28.467Z,101793.63
2023-05-13T13:55:32.455Z,101781.75
2023-05-13T13:58:35.389Z,101783.13
2023-05-13T14:01:39.406Z,101778.59
2023-05-13T14:04:42.078Z,101782.22
2023-05-13T14:07:44.696Z,101770.50
2023-05-13T14:10:48.720Z,101775.78
2023-05-13T14:13:51.326Z,101765.38
2023-05-13T14:16:53.994Z,101766.19
2023-05-13T14:19:56.610Z,101769.63
2023-05-13T14:22:59.237Z,101761.50
2023-05-13T14:26:03.241Z,101762.16
2023-05-13T14:29:05.856Z,101764.13
2023-05-13T14:32:08.783Z,101766.28
2023-05-13T14:35:11.389Z,101751.28
2023-05-13T14:38:13.980Z,101755.50
2023-05-13T14:41:19.817Z,101757.06
2023-05-13T14:44:22.470Z,101753.72
2023-05-13T14:47:25.451Z,101747.00
2023-05-13T14:50:28.073Z,101764.44
2023-05-13T14:53:30.718Z,101754.97
2023-05-13T14:56:34.719Z,101762.97
2023-05-13T14:59:37.388Z,101754.44
2023-05-13T15:02:40.172Z,101752.41
2023-05-13T15:05:44.144Z,101750.03
2023-05-13T15:08:46.991Z,101743.59
2023-05-13T15:11:50.969Z,101736.72
2023-05-13T15:14:54.137Z,101739.81
2023-05-13T15:17:56.769Z,101741.91
2023-05-13T15:20:59.427Z,101740.59
2023-05-13T15:24:02.019Z,101737.25
2023-05-13T15:27:06.572Z,101731.53
2023-05-13T15:30:09.920Z,101725.91
2023-05-13T15:33:12.586Z,101728.69
2023-05-13T15:36:15.256Z,101732.06
2023-05-13T15:39:18.036Z,101723.44
2023-05-13T15:42:23.006Z,101731.47
2023-05-13T15:45:25.639Z,101727.44
2023-05-13T15:48:28.402Z,101737.31
2023-05-13T15:51:31.611Z,101724.63
2023-05-13T15:54:34.874Z,101735.59
2023-05-13T15:57:39.701Z,101721.31
2023-05-13T16:00:42.362Z,101719.97
2023-05-13T16:03:45.032Z,101723.53
2023-05-13T16:06:47.628Z,101716.13
2023-05-13T16:09:50.188Z,101708.00
2023-05-13T16:12:54.118Z,101711.72
2023-05-13T16:15:56.954Z,101710.72
2023-05-13T16:18:59.628Z,101706.66
2023-05-13T16:22:25.196Z,101706.56
2023-05-13T16:25:27.826Z,101706.03
2023-05-13T16:28:31.849Z,101713.19
2023-05-13T16:31:34.730Z,101702.50
2023-05-13T16:34:37.406Z,101704.69
2023-05-13T16:37:40.002Z,101704.41
2023-05-13T16:40:42.648Z,101706.53
2023-05-13T16:43:46.575Z,101702.09
2023-05-13T16:46:49.176Z,101702.31
2023-05-13T16:49:51.756Z,101698.78
2023-05-13T16:52:54.486Z,101703.69
2023-05-13T16:55:57.142Z,101701.16
2023-05-13T16:59:01.146Z,101697.53
2023-05-13T17:02:03.788Z,101699.88
2023-05-13T17:05:07.241Z,101698.13
2023-05-13T17:08:09.908Z,101683.44
2023-05-13T17:11:16.526Z,101695.72
2023-05-13T17:14:20.651Z,101690.00
2023-05-13T17:17:23.238Z,101685.22
2023-05-13T17:20:25.904Z,101692.13
2023-05-13T17:23:28.484Z,101684.94
2023-05-13T17:26:31.163Z,101685.16
2023-05-13T17:29:35.102Z,101681.66
2023-05-13T17:32:37.732Z,101681.81
2023-05-13T17:35:40.468Z,101687.00
2023-05-13T17:38:43.199Z,101684.69
2023-05-13T17:41:46.053Z,101680.19
2023-05-13T17:44:50.009Z,101674.50
2023-05-13T17:47:52.746Z,101681.88
2023-05-13T17:50:55.492Z,101680.03
2023-05-13T17:53:58.095Z,101682.09
2023-05-13T17:57:00.727Z,101673.94
2023-05-13T18:00:06.884Z,101683.88
2023-05-13T18:03:09.886Z,101682.81
2023-05-13T18:06:12.599Z,101681.44
2023-05-13T18:09:15.186Z,101688.50
2023-05-13T18:12:18.116Z,101686.66
2023-05-13T18:15:22.053Z,101682.13
2023-05-13T18:18:24.738Z,101687.44
2023-05-13T18:21:28.800Z,101679.47
2023-05-13T18:24:31.370Z,101684.44
2023-05-13T18:27:33.976Z,101680.97
2023-05-13T18:30:37.937Z,101685.25
2023-05-13T18:33:40.655Z,101681.38
2023-05-13T18:36:43.322Z,101683.19
2023-05-13T18:39:45.916Z,101686.91
2023-05-13T18:42:48.565Z,101689.88
2023-05-13T18:45:53.199Z,101693.78
2023-05-13T18:48:56.580Z,101695.00
2023-05-13T18:51:59.358Z,101693.09
2023-05-13T18:55:04.106Z,101703.94
2023-05-13T18:58:06.672Z,101703.78
2023-05-13T19:01:10.711Z,101712.44
2023-05-13T19:04:15.200Z,101711.38
2023-05-13T19:07:17.963Z,101705.81
2023-05-13T19:10:20.687Z,101706.78
2023-05-13T19:13:25.391Z,101707.50
2023-05-13T19:16:32.735Z,101712.69
2023-05-13T19:19:35.412Z,101708.84
2023-05-13T19:22:38.411Z,101710.19
2023-05-13T19:25:42.677Z,101717.19
2023-05-13T19:28:47.016Z,101715.06
2023-05-13T19:31:50.996Z,101722.03
2023-05-13T19:34:53.677Z,101716.91
2023-05-13T19:37:56.760Z,101718.66
2023-05-13T19:40:59.364Z,101722.59
2023-05-13T19:44:02.349Z,101720.81
2023-05-13T19:47:06.536Z,101729.06
2023-05-13T19:50:09.726Z,101733.31
2023-05-13T19:53:12.537Z,101730.72
2023-05-13T19:56:15.200Z,101737.41
2023-05-13T19:59:17.786Z,101736.56
2023-05-13T20:02:22.043Z,101738.78
2023-05-13T20:05:24.656Z,101741.59
2023-05-13T20:08:29.488Z,101740.72
2023-05-13T20:11:32.546Z,101737.94
2023-05-13T20:14:45.546Z,101744.88
2023-05-13T20:17:49.639Z,101734.66
2023-05-13T20:20:53.596Z,101739.81
2023-05-13T20:23:56.391Z,101729.81
2023-05-13T20:26:58.969Z,101729.38
2023-05-13T20:30:02.046Z,101732.16
2023-05-13T20:33:06.406Z,101732.47
2023-05-13T20:36:09.123Z,101720.59
2023-05-13T20:39:11.704Z,101725.31
2023-05-13T20:42:14.298Z,101725.47
2023-05-13T20:45:16.892Z,101719.19
2023-05-13T20:48:20.831Z,101723.59
2023-05-13T20:51:23.546Z,101725.47
2023-05-13T20:54:26.184Z,101728.63
2023-05-13T20:57:28.811Z,101718.53
2023-05-13T21:00:31.421Z,101725.94
2023-05-13T21:03:35.453Z,101727.22
2023-05-13T21:06:38.192Z,101717.91
2023-05-13T21:09:40.843Z,101718.28
2023-05-13T21:12:47.492Z,101716.78
2023-05-13T21:15:51.904Z,101719.00
2023-05-13T21:18:56.076Z,101723.22
2023-05-13T21:21:58.685Z,101728.19
2023-05-13T21:25:01.298Z,101717.88
2023-05-13T21:28:04.788Z,101718.63
2023-05-13T21:31:07.453Z,101718.22
2023-05-13T21:34:11.428Z,101721.25
2023-05-13T21:37:14.291Z,101717.94
2023-05-13T21:40:17.234Z,101707.69
2023-05-13T21:43:19.856Z,101716.78
2023-05-13T21:46:22.495Z,101709.63
2023-05-13T21:49:26.489Z,101726.44
2023-05-13T21:52:29.228Z,101714.03
2023-05-13T21:55:34.718Z,101712.09
2023-05-13T21:58:37.361Z,101729.53
2023-05-13T22:01:39.957Z,101726.72
2023-05-13T22:04:43.983Z,101720.59
2023-05-13T22:07:46.611Z,101729.69
2023-05-13T22:10:49.168Z,101731.00
2023-05-13T22:13:51.858Z,101725.19
2023-05-13T22:17:07.806Z,101730.75
2023-05-13T22:20:13.855Z,101726.34
2023-05-13T22:23:16.807Z,101725.00
2023-05-13T22:26:19.421Z,101729.50
2023-05-13T22:29:22.397Z,101726.31
2023-05-13T22:32:25.404Z,101731.81
2023-05-13T22:35:29.753Z,101728.63
2023-05-13T22:38:32.318Z,101723.34
2023-05-13T22:41:34.896Z,101720.97
2023-05-13T22:44:37.977Z,101719.75
2023-05-13T22:47:40.668Z,101716.56
2023-05-13T22:50:44.679Z,101711.22
2023-05-13T22:53:47.263Z,101725.06
2023-05-13T22:56:49.817Z,101719.25
2023-05-13T22:59:52.408Z,101719.41
2023-05-13T23:02:55.052Z,101712.91
2023-05-13T23:05:59.096Z,101708.56
2023-05-13T23:09:01.721Z,101707.09
2023-05-13T23:12:04.637Z,101705.38
2023-05-13T23:15:08.364Z,101711.78
2023-05-13T23:18:10.981Z,101714.84
2023-05-13T23:21:14.958Z,101704.56
2023-05-13T23:24:17.553Z,101709.78
2023-05-13T23:27:20.161Z,101701.81
2023-05-13T23:30:23.238Z,101702.06
2023-05-13T23:33:26.163Z,101703.31
2023-05-13T23:36:30.092Z,101701.59
2023-05-13T23:39:32.757Z,101706.31
2023-05-13T23:42:35.958Z,101707.44
2023-05-13T23:45:38.652Z,101702.38
2023-05-13T23:48:41.239Z,101706.19
2023-05-13T23:51:45.422Z,101707.88
2023-05-13T23:54:48.012Z,101701.94
2023-05-13T23:57:50.788Z,101694.91
